My Meet Scores
Aubrey Stevens, Patti Dunne's School Of Gymnastics - MyMeetScores.com
Top100 | Top Teams | Upcoming Meets | Completed Meets | Latest | Add Scores | Help| Support | Bookmark and Share

Aubrey Stevens, Patti Dunne's School Of Gymnastics
Personal Bests
LevelVault BarsBeamFloorAA
39.5009.775 9.5009.22537.600
49.2509.550 9.5259.20036.725
59.2259.450 9.0008.45035.500
Meet Scores
Date Meet Team Session Level Division Vault Bars Beam Floor AA
2020-02-21 Team Challenge 2020 Patti Dunne's School Of Gymnastics B3 5 Inter 8.600 6 9.450 1 9.000 4T 8.450 7 35.500 1
2020-01-24 Manhattan Classic Patti Dunne's School Of Gymnastics 9CP 5 Junior B 9.225 10T 8.825 6 8.275 12T 8.450 9T 34.775 7
2020-01-10 Little Boston Invitational Patti Dunne's School Of Gymnastics C10 5 JR 8.250 14 8.875 7 7.250 13 7.400 12 31.775 12
2019-12-06 Rhode Island Invitational Patti Dunne's School Of Gymnastics WF4 5 intermedia 8.250 4 9.000 2 8.775 1T 8.425 1 34.450 1
2019-02-08 Team Challenge 2019 Patti Dunne's School Of Gymnastics R5 4 Sr A 8.750 7 9.000 2 9.525 1T 8.800 6 36.075 2
2019-02-01 State Level 4&5 Patti Dunne's School Of Gymnastics 3 4 10B 9.250 12T 9.025 17 9.450 9 9.000 29T 36.725 15
2019-01-26 Manhattan Classic Patti Dunne's School Of Gymnastics 4CP 4 Junior A 8.800 11 9.000 8T 9.275 5 8.725 13T 35.800 9
2019-01-18 DGS Northeast Invite Patti Dunne's School Of Gymnastics 6A 4 Ch C 8.450 7T 9.100 1 9.325 3 8.675 10 35.550 3
2019-01-10 Little Boston Invitational Patti Dunne's School Of Gymnastics C10 4 JR 8.500 12 8.600 8 9.325 4 8.425 7 34.850 6
2018-12-14 Shen's New England Classic Patti Dunne's School Of Gymnastics 08 4 JR A 8.625 4 9.225 2 9.100 3T 8.475 4 35.425 3
2018-12-08 American Gymnastics Invitational Patti Dunne's School Of Gymnastics 5 4 Jr A 8.350 4T 8.650 3 9.350 3 9.200 1 35.550 3
2018-11-17 2018 Connecticut Judge's Cup Patti Dunne's School Of Gymnastics 6 4 10 yrs. 8.900 15T 9.075 7 9.000 2T 8.850 24T 35.825 5
2018-02-16 Chelsea Piers Winter Challenge Patti Dunne's School Of Gymnastics F-4 4 Junior 8.600 17 9.550 4 8.850 8 8.875 12 35.875 8
2018-02-09 Team Challenge 2018 Patti Dunne's School Of Gymnastics 08B 4 Jr B 8.500 13 8.900 3T 9.075 6 8.875 7 35.350 7
2018-02-03 Level 4 & 5 States Patti Dunne's School Of Gymnastics 2 4 9 B 8.425 48 8.425 37 8.900 49 8.725 40T 34.475 43
2018-01-19 Kinetic Kids Invitational Patti Dunne's School Of Gymnastics 2 4 Jr B 9.000 3T 9.100 4T 8.700 7 9.100 3T 35.900 5
2018-01-12 DGS Invitational Patti Dunne's School Of Gymnastics 5B 4 8-9 yrs. 7.750 8 8.300 5 8.050 8 8.350 9 32.450 9
2017-11-30 Rhode Island Invitational Patti Dunne's School Of Gymnastics BF1 4 Intermedia 7.700 11 8.600 4 8.700 7T 8.600 9T 33.600 8T
2017-03-25 2017 Connecticut Level 3 State Cup Patti Dunne's School Of Gymnastics 6 3 N/A 9.150 18T 9.325 2 9.000 13 9.100 15T 36.575 7T
2017-02-18 Chelsea Piers Winter Challenge Patti Dunne's School Of Gymnastics F-4 3 Jr A 9.500 1T 9.600 1 9.500 6 9.000 4T 37.600 1
2017-02-10 Team Challenge 2017 Patti Dunne's School Of Gymnastics 10B 3 Inter 9.400 2 9.775 2 9.350 1T 8.925 5 37.450 2
2017-01-27 24th Annual American Invitational Patti Dunne's School Of Gymnastics 6A 3 Child 9.075 17T 9.600 3T 8.800 11 8.950 15T 36.425 8
2017-01-13 Northeast Invitational Patti Dunne's School Of Gymnastics 9 3 8 yrs. 9.500 1 9.300 2 9.300 3 9.000 3 37.100 2
2016-12-02 Rhode Island Invitational Patti Dunne's School Of Gymnastics WS4 3 Intermedia 8.575 10 8.850 4T 8.650 2 9.225 2 35.300 3
2016-04-02 2016 Connecticut Level 6 States & Level 3 State Cup Patti Dunne's School Of Gymnastics 7 3 N/A 8.500 62T 8.150 48T 8.000 47T 7.075 63 31.725 59
2016-02-13 Chelsea Piers Winter Challenge Patti Dunne's School Of Gymnastics F5 3 CH A 8.150 16 9.350 6T 7.950 16T 8.325 14 33.775 14
2016-01-15 DGS Invitational Patti Dunne's School Of Gymnastics A11 3 6-7 yrs. 8.200 12 7.600 8T 8.500 8T 7.800 7 32.100 8
2015-11-21 Pilgrim Invitational Patti Dunne's School Of Gymnastics 6 3 Child 8.900 9 7.700 5 8.200 8T 7.700 10 32.500 9
Get your scores on
a t-shirt, pin, or hoodie

www.lazysuits.com